Terminal Aerodrome Forecast
Issued by NWS

Home | Current Version | Previous Version | Text Only | Print | Product List | Glossary On
Versions: 1 2 3 4 5 6 7 8 9 10 11 12 13 14 15 16 17
000
FTUS46 KHNX 210529
TAFMCE
TAF
KMCE 210529Z 2106/2206 VRB03KT 5SM BR FEW060 SCT090 BKN120
     FM210800 VRB03KT 3SM BR SCT005 BKN015
      TEMPO 2109/2112 2SM BR BKN005
     FM211200 00000KT 2SM BR BKN005
      TEMPO 2112/2116 1/2SM FG VV003
     FM212000 30006KT 3SM BR SCT015 BKN040
     FM220300 VRB03KT 2SM BR SCT005 BKN015=

USA.gov is the U.S. government's official web portal to all federal, state and local government web resources and services.